ADDS METAR Data INFO
IDs: Format: Raw Decoded Include TAF

Data at: 1713 UTC 23 Oct 2017

KMDH 231652Z 31006KT 10SM FEW036 BKN065 OVC095 12/09 A2988 RMK AO2 RAE49 SLP117 P0001 T01170089
KMDH 231552Z 28011KT 5SM -RA BR SCT075 OVC090 10/08 A2989 RMK AO2 SLP121 P0010 T01000083
KMDH 231452Z 32010KT 4SM RA BR OVC050 11/10 A2989 RMK AO2 SLP121 P0006 60013 T01060100 51007
KMDH 231352Z 30011KT 4SM -RA BR FEW037 BKN055 OVC065 11/11 A2989 RMK AO2 SLP120 P0006 T01060106
KMDH 231337Z 30008G16KT 7SM -RA SCT012 BKN048 OVC060 11/11 A2988 RMK AO2 P0005 T01060106
KMDH 231313Z 31009KT 5SM -RA BR BKN014 OVC019 11/10 A2989 RMK AO2 P0005 T01060100
KMDH 231303Z 31008KT 2SM RA BR OVC014 11/10 A2989 RMK AO2 P0004 T01060100
KMDH 231257Z 31008KT 1 3/4SM +RA BR BKN015 OVC021 11/10 A2989 RMK AO2 P0003 T01060100
KMDH 231252Z 31011G15KT 4SM RA BR BKN015 OVC050 11/10 A2989 RMK AO2 RAB49 SLP120 P0001 T01060100
KMDH 231230Z AUTO 30007KT 10SM SCT009 BKN021 OVC050 11/10 A2987 RMK AO2 T01060100
KMDH 231152Z AUTO 31011G17KT 4SM BR OVC006 11/11 A2987 RMK AO2 RAB15E42 CIG 005V011 SLP115 P0002 60004 70134 T01060106 10117 20106 58003
KMDH 231052Z AUTO 30010KT 4SM BR BKN005 OVC010 11/11 A2989 RMK AO2 RAB07E44 CIG 003V007 SLP121 P0001 T01060106
KMDH 231005Z AUTO 30008KT 4SM BR BKN007 OVC013 11/11 A2990 RMK AO2 CIG 004V009 T01110111
KMDH 230952Z AUTO 30007KT 2 1/2SM BR OVC007 11/11 A2989 RMK AO2 CIG 004V010 SLP122 T01110111
KMDH 230852Z AUTO 31006G15KT 10SM OVC008 11/11 A2988 RMK AO2 SLP116 60001 T01110111 56016
KMDH 230752Z AUTO 31009KT 10SM OVC007 11/11 A2989 RMK AO2 SLP121 T01110111
KMDH 230652Z AUTO 32010KT 10SM OVC009 12/12 A2989 RMK AO2 RAE0556 CIG 007V011 PRESFR SLP120 P0001 T01170117
KMDH 230552Z AUTO 30009KT 10SM -RA OVC009 12/12 A2993 RMK AO2 CIG 007V012 SLP132 P0001 60061 T01170117 10133 20117 402390117 55006
KMDH 230506Z AUTO 34009G21KT 9SM -RA BKN008 OVC036 12/12 A2992 RMK AO2 P0001 T01170117
KMDH 230452Z AUTO 34012G18KT 5SM -RA BR SCT008 BKN011 OVC038 12/12 A2991 RMK AO2 PRESFR SLP125 P0012 T01170117
KMDH 230352Z AUTO 29007KT 10SM -RA OVC007 12/12 A2994 RMK AO2 CIG 005V010 SLP136 P0007 T01220122
KMDH 230252Z AUTO 35007KT 7SM -RA BKN006 OVC038 12/12 A2994 RMK AO2 SLP138 P0031 60041 T01220122 58014
KMDH 230240Z AUTO 33006KT 5SM RA BR BKN006 OVC038 12/12 A2995 RMK AO2 P0030 T01220122
KMDH 230227Z AUTO 35007KT 3SM RA BR FEW005 BKN024 OVC040 12/12 A2995 RMK AO2 P0026 T01220122
KMDH 230218Z AUTO 01009KT 2 1/2SM +RA BR SCT007 BKN024 OVC042 12/12 A2995 RMK AO2 P0022 T01220122
KMDH 230211Z AUTO 34007KT 2SM +RA BR SCT007 BKN010 OVC018 12/12 A2996 RMK AO2 P0018 T01220122
KMDH 230200Z 32007KT 1 3/4SM +RA BR OVC008 12/12 A2997 RMK AO2 P0007 T01220122
KMDH 230152Z 31007KT 4SM RA BR OVC008 12/12 A2998 RMK AO2 SLP149 P0006 T01220122
KMDH 230052Z 34008KT 9SM -RA OVC008 13/13 A2998 RMK AO2 SLP150 P0004 T01280128
KMDH 230018Z 33009KT 7SM -RA OVC008 13/13 A2999 RMK AO2 CIG 006V013 P0001 T01280128
KMDH 222352Z 33006KT 10SM -RA OVC010 13/13 A2999 RMK AO2 CIG 007V014 SLP152 P0002 60049 T01330133 10233 20133 55001
KMDH 222332Z 35006KT 10SM -RA OVC010 13/13 A2999 RMK AO2 CIG 008V014 P0002 T01330133
KMDH 222252Z 32010KT 6SM -RA BR BKN009 OVC015 13/13 A2999 RMK AO2 SLP152 P0013 T01330133
KMDH 222211Z 33008KT 3SM RA BR BKN007 BKN010 OVC029 14/14 A2999 RMK AO2 P0009 T01440144
KMDH 222203Z 33009KT 2SM RA BR SCT007 BKN012 OVC032 14/14 A2999 RMK AO2 P0006 T01440144
KMDH 222152Z 32009G17KT 1 1/2SM +RA BR FEW007 BKN021 OVC030 14/14 A2999 RMK AO2 SLP152 P0029 T01440144
KMDH 222144Z 32013G23KT 2SM +RA BR FEW007 BKN021 OVC032 14/14 A2999 RMK AO2 P0023 T01440144
KMDH 222114Z 33015G21KT 1 3/4SM RA BR SCT008 BKN015 OVC032 15/15 A2996 RMK AO2 P0005 T01500150
KMDH 222103Z 31011G24KT 4SM -RA BR SCT006 BKN026 OVC031 16/16 A2996 RMK AO2 P0000 T01610156
KMDH 222052Z 30008KT 7SM -RA OVC031 19/19 A2996 RMK AO2 SLP141 P0003 60005 T01940194 57003
KMDH 222043Z 29006KT 5SM -RA BR OVC031 19/19 A2996 RMK AO2 P0003 T01940194
KMDH 222015Z 24004KT 6SM -RA BR OVC029 20/19 A2996 RMK AO2 P0001 T02000194
KMDH 221952Z 22006KT 7SM -RA OVC032 21/19 A2996 RMK AO2 RAB18 SLP143 P0002 T02060194
KMDH 221852Z 18018G23KT 10SM SCT029 OVC055 23/18 A2996 RMK AO2 PK WND 20026/1759 SLP141 T02330178
KMDH 221752Z 18018G24KT 10SM FEW026 OVC060 23/18 A2996 RMK AO2 PK WND 17026/1712 SLP144 60020 T02330183 10239 20189 56006
KMDH 221652Z 18016G25KT 10SM SCT024 23/18 A2997 RMK AO2 PK WND 19028/1614 SLP146 T02330183
KMDH 221621Z 18018G28KT 10SM BKN023 22/18 A2998 RMK AO2 PK WND 19028/1614 T02170178
KMDH 221611Z 17017G25KT 10SM SCT023 22/18 A2997 RMK AO2 T02170178
KMDH 221604Z 17017G22KT 10SM BKN023 22/18 A2997 RMK AO2 T02220178
KMDH 221552Z 17017G27KT 10SM SCT023 22/18 A2997 RMK AO2 PK WND 16027/1542 SLP146 T02170178
KMDH 221525Z 17018G26KT 10SM SCT024 21/17 A2997 RMK AO2 PK WND 15026/1518 T02110172
KMDH 221452Z 16014G26KT 10SM OVC025 21/18 A2998 RMK AO2 PK WND 18026/1443 SLP149 60020 T02060178 50004
KMDH 221416Z 17014G23KT 10SM FEW021 BKN028 20/18 A2999 RMK AO2 T02000178
KMDH 221352Z 17013G19KT 10SM CLR 19/18 A2999 RMK AO2 SLP151 T01940178
KMDH 221252Z 17017G25KT 10SM FEW055 FEW075 OVC095 19/18 A2997 RMK AO2 PK WND 18030/1219 RAE50 SLP146 P0020 T01940183
KMDH 221234Z 16019G29KT 4SM RA BR FEW016 BKN046 OVC080 19/18 A2996 RMK AO2 PK WND 18030/1219 P0020 T01890183
KMDH 221225Z 17021G30KT 2SM +RA BR FEW016 BKN040 OVC090 19/19 A2996 RMK AO2 PK WND 18030/1219 P0017 T01890189
KMDH 221152Z 18015G20KT 9SM -RA FEW025 BKN045 BKN060 19/17 A2997 RMK AO2 RAB43 SLP145 P0001 60002 70002 T01940172 10211 20194 53001
KMDH 221052Z AUTO 16012G23KT 10SM SCT037 SCT090 20/17 A2996 RMK AO2 PK WND 20026/1037 RAB03E16 SLP142 P0001 T02000172
KMDH 220952Z AUTO 16013G22KT 10SM FEW048 SCT060 OVC100 21/17 A2996 RMK AO2 SLP140 T02110167
KMDH 220852Z AUTO 17014G22KT 10SM CLR 21/17 A2996 RMK AO2 SLP143 T02060167 58019
KMDH 220752Z AUTO 15009KT 10SM BKN080 20/16 A2998 RMK AO2 SLP150 T02000161
KMDH 220652Z AUTO 17010KT 10SM FEW044 BKN095 20/16 A3001 RMK AO2 SLP160 T02000161
KMDH 220552Z AUTO 16011KT 10SM CLR 21/16 A3002 RMK AO2 SLP163 T02060161 10217 20194 402610128 58006